Impacts TAF Board
For situational awareness. Not to be used for flight planning purposes.
IDs:

KRDM - Redmond Muni, OR, US

Issued at 2321 UTC 18 Oct 2021
Updated at 0339 UTC 19 Oct 2021
Potential Impact None Slight Moderate High
Time0256Z 19/04Z 19/05Z 19/06Z 19/07Z 19/08Z 19/09Z 19/10Z 19/11Z 19/12Z 19/13Z 19/14Z 19/15Z 19/16Z>>
Type OBS PRVL PRVL PRVL PRVL PRVL PRVL PRVL PRVL PRVL PRVL PRVL PRVL PRVL
VIS 10 >6 >6 >6 >6 >6 >6 >6 >6 >6 >6 >6 >6 >6
CIG -- -- -- -- -- -- -- -- -- -- -- -- -- --
Cover CLR SKC SKC SKC SKC SKC SKC SKC SKC SKC SKC SKC SKC SKC
FltCat VFR VFR VFR VFR VFR VFR VFR VFR VFR VFR VFR VFR VFR VFR
WX -- -- -- -- -- -- -- -- -- -- -- -- -- --
WDir 300 VRB VRB VRB VRB VRB VRB VRB VRB VRB VRB VRB VRB VRB
WSpd 7 4 4 4 4 4 4 4 4 4 4 4 4 4
WGst -- -- -- -- -- -- -- -- -- -- -- -- -- --
Raw TAF
KRDM 182321Z 1900/1924 34009KT P6SM SKC
  FM190400 VRB04KT P6SM SKC
  FM192000 19014G20KT P6SM SKC


Raw METAR
KRDM 190256Z 30007KT 10SM CLR 08/02 A2993 RMK AO2 SLP139 T00830017 53013
KRDM 190156Z 30008KT 10SM CLR 10/02 A2991 RMK AO2 SLP133 T01000017
KRDM 190056Z 33006KT 10SM CLR 14/01 A2989 RMK AO2 SLP121 T01390011

METAR Board
Radar Display
Forecast Discussion
For situational awareness. Not to be used for flight planning purposes.